sensor_id;sensor_type;location;lat;lon;timestamp;P1;P2;P0
72918;PMS7003;68407;55.694;26.994;2023-09-19T00:01:31;12.8;11.8;8
72918;PMS7003;68407;55.694;26.994;2023-09-19T00:06:39;12.4;11;8.2
72918;PMS7003;68407;55.694;26.994;2023-09-19T00:10:59;12.8;10.4;8.2
72918;PMS7003;68407;55.694;26.994;2023-09-19T00:16:17;13.4;13;8.8
72918;PMS7003;68407;55.694;26.994;2023-09-19T00:21:37;11.2;10;7.6
72918;PMS7003;68407;55.694;26.994;2023-09-19T00:26:15;12;9.6;6.8
72918;PMS7003;68407;55.694;26.994;2023-09-19T00:31:07;11.6;10.2;7.4
72918;PMS7003;68407;55.694;26.994;2023-09-19T00:35:59;13.5;11.5;9
72918;PMS7003;68407;55.694;26.994;2023-09-19T00:41:39;12.8;11.2;8.4
72918;PMS7003;68407;55.694;26.994;2023-09-19T00:46:39;12.2;10.2;7.8
72918;PMS7003;68407;55.694;26.994;2023-09-19T00:51:31;12;10.6;7.4
72918;PMS7003;68407;55.694;26.994;2023-09-19T00:56:23;11.2;9.4;7.2
72918;PMS7003;68407;55.694;26.994;2023-09-19T01:00:53;14;11.8;8.6
72918;PMS7003;68407;55.694;26.994;2023-09-19T01:06:29;14.8;11.8;8.4
72918;PMS7003;68407;55.694;26.994;2023-09-19T01:11:38;13.6;12.2;8.4
72918;PMS7003;68407;55.694;26.994;2023-09-19T01:16:19;12.4;10.4;8.2
72918;PMS7003;68407;55.694;26.994;2023-09-19T01:21:01;14.8;12.2;8.8
72918;PMS7003;68407;55.694;26.994;2023-09-19T01:26:04;12.4;11;8.2
72918;PMS7003;68407;55.694;26.994;2023-09-19T01:31:31;14.4;12;8.6
72918;PMS7003;68407;55.694;26.994;2023-09-19T01:36:37;12.3;10.8;7.8
72918;PMS7003;68407;55.694;26.994;2023-09-19T01:41:13;12.8;11.2;8.4
72918;PMS7003;68407;55.694;26.994;2023-09-19T01:46:25;14;12.4;9.2
72918;PMS7003;68407;55.694;26.994;2023-09-19T01:51:00;13.6;12;8.2
72918;PMS7003;68407;55.694;26.994;2023-09-19T01:56:21;11.6;10.6;8.6
72918;PMS7003;68407;55.694;26.994;2023-09-19T02:01:39;13.4;11.8;8.8
72918;PMS7003;68407;55.694;26.994;2023-09-19T02:05:53;12.4;10.8;8.2
72918;PMS7003;68407;55.694;26.994;2023-09-19T02:10:59;12.2;11.4;8.6
72918;PMS7003;68407;55.694;26.994;2023-09-19T02:16:09;14.6;12.2;8.8
72918;PMS7003;68407;55.694;26.994;2023-09-19T02:21:37;12.4;11.2;8.6
72918;PMS7003;68407;55.694;26.994;2023-09-19T02:26:37;12.2;10.6;8.2
72918;PMS7003;68407;55.694;26.994;2023-09-19T02:31:29;13.2;11.2;8.6
72918;PMS7003;68407;55.694;26.994;2023-09-19T02:36:01;12.8;11.3;7.8
72918;PMS7003;68407;55.694;26.994;2023-09-19T02:41:03;13.2;11.4;9
72918;PMS7003;68407;55.694;26.994;2023-09-19T02:45:53;13.2;11.8;7.6
72918;PMS7003;68407;55.694;26.994;2023-09-19T02:51:37;11.8;11;8.2
72918;PMS7003;68407;55.694;26.994;2023-09-19T02:55:57;12.4;11.4;8.4
72918;PMS7003;68407;55.694;26.994;2023-09-19T03:00:59;13.2;12;8.6
72918;PMS7003;68407;55.694;26.994;2023-09-19T03:06:03;13;11;8.4
72918;PMS7003;68407;55.694;26.994;2023-09-19T03:11:09;12.8;11.4;7.8
72918;PMS7003;68407;55.694;26.994;2023-09-19T03:16:37;11.8;10.4;8.2
72918;PMS7003;68407;55.694;26.994;2023-09-19T03:21:37;11.2;9.4;7
72918;PMS7003;68407;55.694;26.994;2023-09-19T03:26:39;12.4;11.6;8.4
72918;PMS7003;68407;55.694;26.994;2023-09-19T03:31:31;11.8;10.2;7.8
72918;PMS7003;68407;55.694;26.994;2023-09-19T03:36:15;10.3;9.5;7.3
72918;PMS7003;68407;55.694;26.994;2023-09-19T03:41:23;11.6;10.4;7.4
72918;PMS7003;68407;55.694;26.994;2023-09-19T03:45:53;13.6;11.6;8.2
72918;PMS7003;68407;55.694;26.994;2023-09-19T03:51:35;13.8;12;8
72918;PMS7003;68407;55.694;26.994;2023-09-19T03:56:09;13.2;11.8;8.4
72918;PMS7003;68407;55.694;26.994;2023-09-19T04:01:03;13.4;12.2;9
72918;PMS7003;68407;55.694;26.994;2023-09-19T04:06:35;12.8;11.6;9.4
72918;PMS7003;68407;55.694;26.994;2023-09-19T04:11:37;15.4;12.6;9.4
72918;PMS7003;68407;55.694;26.994;2023-09-19T04:16:21;14.6;12.4;9.2
72918;PMS7003;68407;55.694;26.994;2023-09-19T04:21:31;15;12;9.6
72918;PMS7003;68407;55.694;26.994;2023-09-19T04:26:11;14.6;12.8;9.6
72918;PMS7003;68407;55.694;26.994;2023-09-19T04:31:23;15.6;14;9.4
72918;PMS7003;68407;55.694;26.994;2023-09-19T04:35:57;16.3;13.8;9.3
72918;PMS7003;68407;55.694;26.994;2023-09-19T04:40:57;16.4;14;10.4
72918;PMS7003;68407;55.694;26.994;2023-09-19T04:45:53;16.6;14.8;10.8
72918;PMS7003;68407;55.694;26.994;2023-09-19T04:50:57;17.2;15.2;10.4
72918;PMS7003;68407;55.694;26.994;2023-09-19T04:56:15;13.2;11.8;8.4
72918;PMS7003;68407;55.694;26.994;2023-09-19T05:01:35;14.2;12.2;9
72918;PMS7003;68407;55.694;26.994;2023-09-19T05:06:25;13.4;11.6;8.2
72918;PMS7003;68407;55.694;26.994;2023-09-19T05:11:37;11.2;10;8
72918;PMS7003;68407;55.694;26.994;2023-09-19T05:15:53;12.6;10.4;8
72918;PMS7003;68407;55.694;26.994;2023-09-19T05:21:23;12.8;11;7.4
72918;PMS7003;68407;55.694;26.994;2023-09-19T05:25:53;11.6;10;7.4
72918;PMS7003;68407;55.694;26.994;2023-09-19T05:31:15;11.4;10;7
72918;PMS7003;68407;55.694;26.994;2023-09-19T05:35:51;11.6;10.4;7.8
72918;PMS7003;68407;55.694;26.994;2023-09-19T05:41:05;12.5;10.8;8
72918;PMS7003;68407;55.694;26.994;2023-09-19T05:46:29;11.4;10.4;8
72918;PMS7003;68407;55.694;26.994;2023-09-19T05:51:33;13.6;12.2;8.6
72918;PMS7003;68407;55.694;26.994;2023-09-19T05:56:21;15.8;13;9.2
72918;PMS7003;68407;55.694;26.994;2023-09-19T06:01:33;15.8;13;10
72918;PMS7003;68407;55.694;26.994;2023-09-19T06:06:15;13.2;11.8;8.6
72918;PMS7003;68407;55.694;26.994;2023-09-19T06:11:25;15.4;13.4;9.8
72918;PMS7003;68407;55.694;26.994;2023-09-19T06:15:54;11.4;10.2;7.6
72918;PMS7003;68407;55.694;26.994;2023-09-19T06:20:53;14;12.4;9.2
72918;PMS7003;68407;55.694;26.994;2023-09-19T06:25:53;12.2;11.4;8
72918;PMS7003;68407;55.694;26.994;2023-09-19T06:31:02;12;11.8;8.6
72918;PMS7003;68407;55.694;26.994;2023-09-19T06:36:35;12.4;11.4;8.8
72918;PMS7003;68407;55.694;26.994;2023-09-19T06:41:39;12.5;10.5;7.8
72918;PMS7003;68407;55.694;26.994;2023-09-19T06:46:25;11;10;7.6
72918;PMS7003;68407;55.694;26.994;2023-09-19T06:51:37;11.8;9.6;7.4
72918;PMS7003;68407;55.694;26.994;2023-09-19T06:56:17;11.8;10;7
72918;PMS7003;68407;55.694;26.994;2023-09-19T07:01:23;10.2;9.2;7.2
72918;PMS7003;68407;55.694;26.994;2023-09-19T07:06:11;10.2;9.2;7.4
72918;PMS7003;68407;55.694;26.994;2023-09-19T07:10:53;10.6;8.6;7.2
72918;PMS7003;68407;55.694;26.994;2023-09-19T07:16:03;11.2;9.4;6.8
72918;PMS7003;68407;55.694;26.994;2023-09-19T07:21:09;10.4;8.4;6.6
72918;PMS7003;68407;55.694;26.994;2023-09-19T07:26:19;10.4;9.2;7.4
72918;PMS7003;68407;55.694;26.994;2023-09-19T07:31:17;11;9.2;7.4
72918;PMS7003;68407;55.694;26.994;2023-09-19T07:36:37;11.4;9.4;7.4
72918;PMS7003;68407;55.694;26.994;2023-09-19T07:41:37;11.8;10.5;7.5
72918;PMS7003;68407;55.694;26.994;2023-09-19T07:46:39;11.8;8.8;7
72918;PMS7003;68407;55.694;26.994;2023-09-19T07:51:25;10.6;9.2;7
72918;PMS7003;68407;55.694;26.994;2023-09-19T07:56:02;12;10.6;8
72918;PMS7003;68407;55.694;26.994;2023-09-19T08:00:53;9.6;8.8;6
72918;PMS7003;68407;55.694;26.994;2023-09-19T08:06:17;12.4;9.8;7.2
72918;PMS7003;68407;55.694;26.994;2023-09-19T08:10:53;11.4;10.2;7.8
72918;PMS7003;68407;55.694;26.994;2023-09-19T08:16:19;11.2;10;7.6
72918;PMS7003;68407;55.694;26.994;2023-09-19T08:20:55;10.4;8.4;7
72918;PMS7003;68407;55.694;26.994;2023-09-19T08:26:39;12.4;10;7.4
72918;PMS7003;68407;55.694;26.994;2023-09-19T08:31:39;12;9.6;7.2
72918;PMS7003;68407;55.694;26.994;2023-09-19T08:36:17;11.6;9.8;7.8
72918;PMS7003;68407;55.694;26.994;2023-09-19T08:41:39;10;9.3;7.5
72918;PMS7003;68407;55.694;26.994;2023-09-19T08:46:29;11;9.2;6.8
72918;PMS7003;68407;55.694;26.994;2023-09-19T08:51:26;12.4;11;8.4
72918;PMS7003;68407;55.694;26.994;2023-09-19T08:56:39;14.4;13;9.4
72918;PMS7003;68407;55.694;26.994;2023-09-19T09:01:29;10.6;9.8;7.8
72918;PMS7003;68407;55.694;26.994;2023-09-19T09:06:01;13.8;10.6;8
72918;PMS7003;68407;55.694;26.994;2023-09-19T09:11:19;13.4;10.8;8.4
72918;PMS7003;68407;55.694;26.994;2023-09-19T09:16:07;13.2;11.8;8.6
72918;PMS7003;68407;55.694;26.994;2023-09-19T09:21:40;14.6;12.4;9
72918;PMS7003;68407;55.694;26.994;2023-09-19T09:26:17;14.4;12.2;8.4
72918;PMS7003;68407;55.694;26.994;2023-09-19T09:31:33;13.8;12;8.2
72918;PMS7003;68407;55.694;26.994;2023-09-19T09:35:53;13.6;11.6;8.6
72918;PMS7003;68407;55.694;26.994;2023-09-19T09:40:55;12.5;9.8;7.3
72918;PMS7003;68407;55.694;26.994;2023-09-19T09:46:20;13.6;11.6;8.4
72918;PMS7003;68407;55.694;26.994;2023-09-19T09:50:53;14.6;13;9.8
72918;PMS7003;68407;55.694;26.994;2023-09-19T09:56:07;10.8;10.6;8.4
72918;PMS7003;68407;55.694;26.994;2023-09-19T10:01:46;12.2;10.4;7.8
72918;PMS7003;68407;55.694;26.994;2023-09-19T10:06:40;11.2;10;7.6
72918;PMS7003;68407;55.694;26.994;2023-09-19T10:11:40;11.6;10;8
72918;PMS7003;68407;55.694;26.994;2023-09-19T10:16:25;12.4;10.4;7.6
72918;PMS7003;68407;55.694;26.994;2023-09-19T10:21:39;12.2;10.2;8.2
72918;PMS7003;68407;55.694;26.994;2023-09-19T10:25:59;10.4;9;7
72918;PMS7003;68407;55.694;26.994;2023-09-19T10:30:53;13.2;10.2;7.6
72918;PMS7003;68407;55.694;26.994;2023-09-19T10:36:19;11.8;9.8;8
72918;PMS7003;68407;55.694;26.994;2023-09-19T10:41:11;12.8;10.5;8.3
72918;PMS7003;68407;55.694;26.994;2023-09-19T10:46:19;12.4;10;8
72918;PMS7003;68407;55.694;26.994;2023-09-19T10:51:20;12;10.2;7.8
72918;PMS7003;68407;55.694;26.994;2023-09-19T10:56:42;12.8;11.4;8
72918;PMS7003;68407;55.694;26.994;2023-09-19T11:01:42;12;10.2;8.2
72918;PMS7003;68407;55.694;26.994;2023-09-19T11:06:17;11;10;7.2
72918;PMS7003;68407;55.694;26.994;2023-09-19T11:11:40;12.2;11;8.6
72918;PMS7003;68407;55.694;26.994;2023-09-19T11:16:11;12.6;11;9
72918;PMS7003;68407;55.694;26.994;2023-09-19T11:21:00;14;12.2;10
72918;PMS7003;68407;55.694;26.994;2023-09-19T11:26:32;15;12.6;10
72918;PMS7003;68407;55.694;26.994;2023-09-19T11:30:53;15.6;13.8;10.6
72918;PMS7003;68407;55.694;26.994;2023-09-19T11:36:05;13;11.2;8.6
72918;PMS7003;68407;55.694;26.994;2023-09-19T11:41:37;14;12.4;9.2
72918;PMS7003;68407;55.694;26.994;2023-09-19T11:46:08;11.5;10;7
72918;PMS7003;68407;55.694;26.994;2023-09-19T11:51:40;13.4;11.8;8.8
72918;PMS7003;68407;55.694;26.994;2023-09-19T11:56:01;13;11.2;9
72918;PMS7003;68407;55.694;26.994;2023-09-19T12:00:53;13.2;11.8;9
72918;PMS7003;68407;55.694;26.994;2023-09-19T12:05:59;13.8;12.4;9.2
72918;PMS7003;68407;55.694;26.994;2023-09-19T12:11:17;13.4;11.8;9.8
72918;PMS7003;68407;55.694;26.994;2023-09-19T12:16:37;14.4;11.8;9
72918;PMS7003;68407;55.694;26.994;2023-09-19T12:20:53;14.4;13;9.6
72918;PMS7003;68407;55.694;26.994;2023-09-19T12:25:54;13;11.6;8.6
72918;PMS7003;68407;55.694;26.994;2023-09-19T12:31:17;14.8;12.2;9.4
72918;PMS7003;68407;55.694;26.994;2023-09-19T12:35:59;13.8;11.4;9
72918;PMS7003;68407;55.694;26.994;2023-09-19T12:41:39;15.4;13;10
72918;PMS7003;68407;55.694;26.994;2023-09-19T12:46:07;14.3;11.8;9
72918;PMS7003;68407;55.694;26.994;2023-09-19T12:51:01;13.8;11;8.8
72918;PMS7003;68407;55.694;26.994;2023-09-19T12:56:19;12.2;10.8;8.8
72918;PMS7003;68407;55.694;26.994;2023-09-19T13:01:13;11;9.6;8.4
72918;PMS7003;68407;55.694;26.994;2023-09-19T13:06:37;9.8;9.4;7.2
72918;PMS7003;68407;55.694;26.994;2023-09-19T13:11:08;12;9.6;7.6
72918;PMS7003;68407;55.694;26.994;2023-09-19T13:16:00;10.6;8.8;7
72918;PMS7003;68407;55.694;26.994;2023-09-19T13:21:27;9;8;6.4
72918;PMS7003;68407;55.694;26.994;2023-09-19T13:25:59;8.2;8;6.4
72918;PMS7003;68407;55.694;26.994;2023-09-19T13:31:39;10.2;8.4;6.2
72918;PMS7003;68407;55.694;26.994;2023-09-19T13:36:39;8.2;7.6;5.4
72918;PMS7003;68407;55.694;26.994;2023-09-19T13:40:53;8.6;7.2;5.6
72918;PMS7003;68407;55.694;26.994;2023-09-19T13:45:53;9.3;8.3;6.3
72918;PMS7003;68407;55.694;26.994;2023-09-19T13:51:07;8;6.8;5
72918;PMS7003;68407;55.694;26.994;2023-09-19T13:56:39;7;6.2;4.8
72918;PMS7003;68407;55.694;26.994;2023-09-19T14:00:53;8;6.6;5.2
72918;PMS7003;68407;55.694;26.994;2023-09-19T14:06:05;7.8;6.8;5.4
72918;PMS7003;68407;55.694;26.994;2023-09-19T14:11:19;7.8;7;5.4
72918;PMS7003;68407;55.694;26.994;2023-09-19T14:15:53;6.2;6;4.8
72918;PMS7003;68407;55.694;26.994;2023-09-19T14:21:39;8;6.6;5.4
72918;PMS7003;68407;55.694;26.994;2023-09-19T14:26:31;9.6;7;5.6
72918;PMS7003;68407;55.694;26.994;2023-09-19T14:30:51;9.2;6.8;5.4
72918;PMS7003;68407;55.694;26.994;2023-09-19T14:36:08;8.8;7.6;6.2
72918;PMS7003;68407;55.694;26.994;2023-09-19T14:40:59;9.4;7.4;5.2
72918;PMS7003;68407;55.694;26.994;2023-09-19T14:46:37;6.8;6;5
72918;PMS7003;68407;55.694;26.994;2023-09-19T14:51:03;8.8;7.6;6
72918;PMS7003;68407;55.694;26.994;2023-09-19T14:56:07;7;5.8;4.6
72918;PMS7003;68407;55.694;26.994;2023-09-19T15:01:19;5.8;5.6;4.6
72918;PMS7003;68407;55.694;26.994;2023-09-19T15:06:17;8.6;6.4;5.2
72918;PMS7003;68407;55.694;26.994;2023-09-19T15:11:37;8;7;5.4
72918;PMS7003;68407;55.694;26.994;2023-09-19T15:16:19;7.4;6.4;5
72918;PMS7003;68407;55.694;26.994;2023-09-19T15:21:00;8.2;7.2;5.2
72918;PMS7003;68407;55.694;26.994;2023-09-19T15:26:06;8;7.6;5.8
72918;PMS7003;68407;55.694;26.994;2023-09-19T15:31:02;8.6;7.6;6
72918;PMS7003;68407;55.694;26.994;2023-09-19T15:36:37;9.8;7.6;6.2
72918;PMS7003;68407;55.694;26.994;2023-09-19T15:40:53;8.2;7;4.6
72918;PMS7003;68407;55.694;26.994;2023-09-19T15:46:03;8.5;7.3;5
72918;PMS7003;68407;55.694;26.994;2023-09-19T15:51:15;9;8;6.2
72918;PMS7003;68407;55.694;26.994;2023-09-19T15:56:25;9.6;8.4;6.6
72918;PMS7003;68407;55.694;26.994;2023-09-19T16:01:39;9;8.2;6.2
72918;PMS7003;68407;55.694;26.994;2023-09-19T16:06:20;8.6;7.2;5.4
72918;PMS7003;68407;55.694;26.994;2023-09-19T16:11:19;7.8;6.8;5.4
72918;PMS7003;68407;55.694;26.994;2023-09-19T16:15:59;8.8;7.2;5.6
72918;PMS7003;68407;55.694;26.994;2023-09-19T16:21:13;9.8;8;5.8
72918;PMS7003;68407;55.694;26.994;2023-09-19T16:26:39;8.4;7.4;5.4
72918;PMS7003;68407;55.694;26.994;2023-09-19T16:31:03;8.6;8.2;5.8
72918;PMS7003;68407;55.694;26.994;2023-09-19T16:35:53;9;7.4;5.6
72918;PMS7003;68407;55.694;26.994;2023-09-19T16:41:19;9;7.4;5.8
72918;PMS7003;68407;55.694;26.994;2023-09-19T16:46:29;10.2;7.6;6.2
72918;PMS7003;68407;55.694;26.994;2023-09-19T16:51:39;8;7;5.5
72918;PMS7003;68407;55.694;26.994;2023-09-19T16:56:31;8;7.4;6
72918;PMS7003;68407;55.694;26.994;2023-09-19T17:00:59;8.2;7.4;5.6
72918;PMS7003;68407;55.694;26.994;2023-09-19T17:06:05;8;6.6;5.4
72918;PMS7003;68407;55.694;26.994;2023-09-19T17:11:03;8.6;7.4;5.8
72918;PMS7003;68407;55.694;26.994;2023-09-19T17:16:39;9.8;9;6.4
72918;PMS7003;68407;55.694;26.994;2023-09-19T17:21:11;9;7.4;5.8
72918;PMS7003;68407;55.694;26.994;2023-09-19T17:26:01;8;6.4;4.8
72918;PMS7003;68407;55.694;26.994;2023-09-19T17:31:20;9.2;7.6;6.4
72918;PMS7003;68407;55.694;26.994;2023-09-19T17:36:20;10;8.6;6.6
72918;PMS7003;68407;55.694;26.994;2023-09-19T17:41:39;10.6;8.8;6.6
72918;PMS7003;68407;55.694;26.994;2023-09-19T17:46:31;9;7.6;5.6
72918;PMS7003;68407;55.694;26.994;2023-09-19T17:51:25;10.8;8.8;6.8
72918;PMS7003;68407;55.694;26.994;2023-09-19T17:55:53;11;8.6;6.6
72918;PMS7003;68407;55.694;26.994;2023-09-19T18:01:31;11;9;7
72918;PMS7003;68407;55.694;26.994;2023-09-19T18:06:19;15;12;8.4
72918;PMS7003;68407;55.694;26.994;2023-09-19T18:11:29;14.8;12.6;9
72918;PMS7003;68407;55.694;26.994;2023-09-19T18:16:27;14.8;13.2;9.2
72918;PMS7003;68407;55.694;26.994;2023-09-19T18:21:21;13.8;11.8;8.6
72918;PMS7003;68407;55.694;26.994;2023-09-19T18:26:31;13.4;11.6;9
72918;PMS7003;68407;55.694;26.994;2023-09-19T18:31:39;14.8;13.4;9.2
72918;PMS7003;68407;55.694;26.994;2023-09-19T18:36:25;14.4;12.4;9.4
72918;PMS7003;68407;55.694;26.994;2023-09-19T18:41:17;15.2;13.6;9.6
72918;PMS7003;68407;55.694;26.994;2023-09-19T18:45:55;17.2;13.8;9.8
72918;PMS7003;68407;55.694;26.994;2023-09-19T18:51:12;18.8;14.3;9.8
72918;PMS7003;68407;55.694;26.994;2023-09-19T18:56:41;15;13.2;9.2
72918;PMS7003;68407;55.694;26.994;2023-09-19T19:01:10;12.2;10.6;7.8
72918;PMS7003;68407;55.694;26.994;2023-09-19T19:06:08;18.8;15.6;11.2
72918;PMS7003;68407;55.694;26.994;2023-09-19T19:11:29;15.8;14.4;9.8
72918;PMS7003;68407;55.694;26.994;2023-09-19T19:16:31;14;13;9.2
72918;PMS7003;68407;55.694;26.994;2023-09-19T19:21:31;13.8;11.6;9
72918;PMS7003;68407;55.694;26.994;2023-09-19T19:26:02;13.6;12;9.4
72918;PMS7003;68407;55.694;26.994;2023-09-19T19:30:59;14.8;13;8.8
72918;PMS7003;68407;55.694;26.994;2023-09-19T19:36:03;15.2;13;9.6
72918;PMS7003;68407;55.694;26.994;2023-09-19T19:41:39;16;12.8;8.6
72918;PMS7003;68407;55.694;26.994;2023-09-19T19:46:31;14.2;13.2;9.6
72918;PMS7003;68407;55.694;26.994;2023-09-19T19:51:27;14.8;12.3;9
72918;PMS7003;68407;55.694;26.994;2023-09-19T19:56:15;15.8;14.6;10.6
72918;PMS7003;68407;55.694;26.994;2023-09-19T20:01:09;16.4;14.8;10.8
72918;PMS7003;68407;55.694;26.994;2023-09-19T20:06:41;14.2;13.6;10
72918;PMS7003;68407;55.694;26.994;2023-09-19T20:11:17;15.2;13.8;10.2
72918;PMS7003;68407;55.694;26.994;2023-09-19T20:15:53;12.6;11.2;8.4
72918;PMS7003;68407;55.694;26.994;2023-09-19T20:21:03;14.6;13;9.2
72918;PMS7003;68407;55.694;26.994;2023-09-19T20:26:00;13.8;13.4;9.2
72918;PMS7003;68407;55.694;26.994;2023-09-19T20:31:39;13.2;11.4;8
72918;PMS7003;68407;55.694;26.994;2023-09-19T20:36:29;15;12.2;8.8
72918;PMS7003;68407;55.694;26.994;2023-09-19T20:41:25;17;14.6;10.4
72918;PMS7003;68407;55.694;26.994;2023-09-19T20:45:51;15.6;14;10
72918;PMS7003;68407;55.694;26.994;2023-09-19T20:51:27;14;12.8;10
72918;PMS7003;68407;55.694;26.994;2023-09-19T20:56:39;15;13.2;9.8
72918;PMS7003;68407;55.694;26.994;2023-09-19T21:00:53;14.4;13.4;10
72918;PMS7003;68407;55.694;26.994;2023-09-19T21:05:59;13.8;13;9.2
72918;PMS7003;68407;55.694;26.994;2023-09-19T21:10:53;15.4;13.4;9.8
72918;PMS7003;68407;55.694;26.994;2023-09-19T21:16:08;13.8;12.2;8.8
72918;PMS7003;68407;55.694;26.994;2023-09-19T21:21:39;17.6;14.2;10.2
72918;PMS7003;68407;55.694;26.994;2023-09-19T21:26:31;17.2;14.6;10.4
72918;PMS7003;68407;55.694;26.994;2023-09-19T21:31:27;18.6;15.8;10.6
72918;PMS7003;68407;55.694;26.994;2023-09-19T21:36:08;14.8;14;10
72918;PMS7003;68407;55.694;26.994;2023-09-19T21:41:27;16.6;14.2;10.2
72918;PMS7003;68407;55.694;26.994;2023-09-19T21:46:41;17.2;15.2;11
72918;PMS7003;68407;55.694;26.994;2023-09-19T21:51:23;18.4;15.4;10.6
72918;PMS7003;68407;55.694;26.994;2023-09-19T21:56:41;17.3;15;11.3
72918;PMS7003;68407;55.694;26.994;2023-09-19T22:01:35;19;16.2;11.6
72918;PMS7003;68407;55.694;26.994;2023-09-19T22:06:08;17.4;15.2;11.2
72918;PMS7003;68407;55.694;26.994;2023-09-19T22:11:41;16.8;15.2;10
72918;PMS7003;68407;55.694;26.994;2023-09-19T22:16:19;17.2;14.8;10.8
72918;PMS7003;68407;55.694;26.994;2023-09-19T22:21:27;17.8;15.8;10.6
72918;PMS7003;68407;55.694;26.994;2023-09-19T22:26:08;19.8;16.4;10.8
72918;PMS7003;68407;55.694;26.994;2023-09-19T22:31:13;18;15.8;11.6
72918;PMS7003;68407;55.694;26.994;2023-09-19T22:36:41;18;15.6;10.4
72918;PMS7003;68407;55.694;26.994;2023-09-19T22:41:11;17.6;16;10.8
72918;PMS7003;68407;55.694;26.994;2023-09-19T22:45:53;17.8;16;12
72918;PMS7003;68407;55.694;26.994;2023-09-19T22:50:53;17.4;15.2;10.4
72918;PMS7003;68407;55.694;26.994;2023-09-19T22:56:07;18.3;14.5;10.8
72918;PMS7003;68407;55.694;26.994;2023-09-19T23:01:21;18.2;16;11.4
72918;PMS7003;68407;55.694;26.994;2023-09-19T23:06:42;15;13.4;10
72918;PMS7003;68407;55.694;26.994;2023-09-19T23:11:13;15.8;15;10.8
72918;PMS7003;68407;55.694;26.994;2023-09-19T23:16:07;16.8;15.4;10.6
72918;PMS7003;68407;55.694;26.994;2023-09-19T23:21:31;17.2;15;10.2
72918;PMS7003;68407;55.694;26.994;2023-09-19T23:26:41;15;14;10
72918;PMS7003;68407;55.694;26.994;2023-09-19T23:31:31;18.6;15.8;11.2
72918;PMS7003;68407;55.694;26.994;2023-09-19T23:35:53;16.2;14;9.4
72918;PMS7003;68407;55.694;26.994;2023-09-19T23:40:53;15.4;14.6;10
72918;PMS7003;68407;55.694;26.994;2023-09-19T23:46:29;16.8;14;9.6
72918;PMS7003;68407;55.694;26.994;2023-09-19T23:51:39;17.2;13.6;9.6
72918;PMS7003;68407;55.694;26.994;2023-09-19T23:56:29;15;12.8;9
